Time;durP1;ratioP1;P1;durP2;ratioP2;P2;SDS_P1;SDS_P2;PMS_P1;PMS_P2;Temp;Humidity;BMP_temperature;BMP_pressure;BME280_temperature;BME280_humidity;BME280_pressure;Samples;Min_cycle;Max_cycle;Signal;HPM_P1;HPM_P2
2022/11/18 00:00:51;;;;;;;7.20;2.00;;;;;;;12.03;60.32;99459.16;5013164;28;114945;-70
2022/11/18 00:03:18;;;;;;;7.00;2.28;;;;;;;12.04;60.16;99460.88;5007909;28;123971;-70
2022/11/18 00:05:56;;;;;;;4.18;1.90;;;;;;;12.02;60.03;99468.09;5008120;28;124028;-69
2022/11/18 00:08:24;;;;;;;4.85;2.08;;;;;;;12.00;59.98;99464.69;4976536;28;112959;-70
2022/11/18 00:10:52;;;;;;;4.53;1.98;;;;;;;11.99;60.09;99468.31;5013003;28;113826;-70
2022/11/18 00:16:08;;;;;;;3.80;1.95;;;;;;;11.95;60.07;99472.16;5009326;28;124147;-70
2022/11/18 00:18:36;;;;;;;4.72;2.17;;;;;;;11.95;60.16;99466.84;5007010;28;114743;-70
2022/11/18 00:21:06;;;;;;;4.40;2.05;;;;;;;11.94;60.26;99478.41;4990338;28;113703;-71
2022/11/18 00:23:33;;;;;;;4.97;2.00;;;;;;;11.93;60.37;99479.38;4975863;28;124131;-70
2022/11/18 00:26:08;;;;;;;9.88;2.30;;;;;;;11.92;60.42;99472.34;4999587;28;123233;-70
2022/11/18 00:28:35;;;;;;;9.98;2.80;;;;;;;11.91;60.21;99478.63;5006134;28;114253;-70
2022/11/18 00:31:09;;;;;;;5.28;2.08;;;;;;;11.88;60.42;99483.19;5006087;28;113892;-70
2022/11/18 00:33:36;;;;;;;4.78;2.20;;;;;;;11.91;60.30;99486.59;5001381;28;124081;-70
2022/11/18 00:36:05;;;;;;;6.78;2.25;;;;;;;11.89;60.44;99494.63;4985933;28;123260;-70
2022/11/18 00:38:32;;;;;;;6.25;2.38;;;;;;;11.89;60.24;99494.63;5004238;28;114322;-70
2022/11/18 00:41:08;;;;;;;5.25;2.10;;;;;;;11.88;60.17;99504.41;5008625;28;114161;-70
2022/11/18 00:43:36;;;;;;;4.82;2.28;;;;;;;11.88;60.40;99509.72;5005146;28;124024;-70
2022/11/18 00:46:03;;;;;;;4.80;2.22;;;;;;;11.88;60.42;99503.53;4971424;28;122716;-70
2022/11/18 00:48:31;;;;;;;5.80;1.98;;;;;;;11.88;60.50;99509.72;4992877;28;113996;-70
2022/11/18 00:51:09;;;;;;;5.00;2.03;;;;;;;11.86;60.44;99506.28;4993246;28;112586;-70
2022/11/18 00:53:36;;;;;;;6.35;2.25;;;;;;;11.86;60.46;99511.59;5009383;28;124405;-70
2022/11/18 00:56:04;;;;;;;6.72;1.98;;;;;;;11.84;60.42;99516.16;5013374;28;123231;-70
2022/11/18 00:58:31;;;;;;;5.28;1.90;;;;;;;11.85;60.47;99520.53;5015277;28;114355;-70
2022/11/18 01:00:58;;;;;;;4.25;1.75;;;;;;;11.85;60.48;99523.19;5006529;28;113803;-70
2022/11/18 01:03:27;;;;;;;7.00;1.92;;;;;;;11.85;60.66;99515.22;5016997;28;124006;-70
2022/11/18 01:05:54;;;;;;;4.63;2.13;;;;;;;11.85;60.54;99520.53;5007678;28;123625;-70
2022/11/18 01:08:22;;;;;;;5.93;2.15;;;;;;;11.87;60.50;99529.22;5018478;28;114520;-70
2022/11/18 01:10:49;;;;;;;5.20;1.90;;;;;;;11.88;60.59;99530.94;4993590;28;113161;-70
2022/11/18 01:13:19;;;;;;;3.85;1.98;;;;;;;11.90;60.50;99532.66;5011370;28;123729;-70
2022/11/18 01:15:57;;;;;;;7.07;2.00;;;;;;;11.91;60.57;99535.19;5012868;28;123086;-70
2022/11/18 01:18:26;;;;;;;8.35;2.35;;;;;;;11.92;60.73;99536.03;5019941;28;114238;-72
2022/11/18 01:20:59;;;;;;;5.53;2.35;;;;;;;11.94;60.78;99539.41;4991598;28;114630;-70
2022/11/18 01:23:26;;;;;;;5.47;2.13;;;;;;;11.96;60.90;99548.13;4986123;28;125035;-70
2022/11/18 01:25:53;;;;;;;8.75;2.20;;;;;;;11.97;60.91;99549.81;5011680;28;123881;-70
2022/11/18 01:28:20;;;;;;;6.32;2.30;;;;;;;11.99;60.83;99547.91;5009536;28;115305;-70
2022/11/18 01:30:50;;;;;;;6.68;2.10;;;;;;;12.02;60.89;99547.69;4983291;28;114114;-70
2022/11/18 01:33:17;;;;;;;6.68;2.20;;;;;;;12.06;60.63;99559.78;5001822;28;124321;-70
2022/11/18 01:35:44;;;;;;;7.03;2.00;;;;;;;12.08;60.79;99563.16;5001908;28;124379;-70
2022/11/18 01:38:13;;;;;;;3.70;1.67;;;;;;;12.10;61.04;99566.56;5005322;28;115101;-70
2022/11/18 01:40:40;;;;;;;4.88;2.30;;;;;;;12.12;61.03;99561.16;4988803;28;114596;-70
2022/11/18 01:43:17;;;;;;;6.25;2.22;;;;;;;12.14;60.97;99570.69;4990996;28;123044;-70
2022/11/18 01:45:47;;;;;;;4.30;2.08;;;;;;;12.15;61.18;99564.44;5006244;28;123768;-69
2022/11/18 01:48:21;;;;;;;4.50;2.00;;;;;;;12.17;61.12;99573.13;5005457;28;111810;-70
2022/11/18 01:50:55;;;;;;;7.07;2.22;;;;;;;12.18;61.10;99574.81;5002827;28;112850;-70
2022/11/18 01:53:25;;;;;;;6.28;2.00;;;;;;;12.21;61.12;99568.44;4985533;28;122298;-70
2022/11/18 01:55:56;;;;;;;6.95;2.40;;;;;;;12.23;61.17;99566.53;4980808;28;122906;-69
2022/11/18 01:58:29;;;;;;;4.38;1.90;;;;;;;12.25;61.13;99573.41;4987584;28;113548;-70
2022/11/18 02:00:57;;;;;;;7.32;2.50;;;;;;;12.26;61.11;99577.78;5002203;28;114481;-70
2022/11/18 02:03:26;;;;;;;7.65;2.42;;;;;;;12.30;61.09;99577.53;4990750;28;123821;-70
2022/11/18 02:05:54;;;;;;;4.70;2.08;;;;;;;12.32;61.12;99580.91;5003226;28;124052;-70
2022/11/18 02:08:22;;;;;;;5.80;2.15;;;;;;;12.34;61.09;99579.00;4998455;28;114230;-70
2022/11/18 02:10:49;;;;;;;6.28;2.17;;;;;;;12.35;61.16;99591.31;4999849;28;113734;-70
2022/11/18 02:13:17;;;;;;;6.93;2.25;;;;;;;12.38;61.01;99591.13;4998314;28;123793;-68
2022/11/18 02:15:52;;;;;;;3.97;2.00;;;;;;;12.40;60.99;99589.19;4999142;28;122794;-69
2022/11/18 02:18:38;;;;;;;;;;;;;;;12.39;60.86;99598.09;4983131;28;113295;-70
2022/11/18 02:21:26;;;;;;;4.03;1.98;;;;;;;12.41;60.91;99604.16;5002921;28;114484;-70
2022/11/18 02:24:26;;;;;;;5.68;1.83;;;;;;;12.41;60.96;99606.81;4993124;28;124474;-70
2022/11/18 02:27:17;;;;;;;4.57;2.03;;;;;;;12.41;61.05;99604.16;4990096;28;123304;-70
2022/11/18 02:29:57;;;;;;;6.68;2.58;;;;;;;12.40;61.12;99610.44;4999501;28;115419;-70
2022/11/18 02:32:33;;;;;;;6.00;2.33;;;;;;;12.41;61.18;99613.00;5000430;28;114885;-70
2022/11/18 02:35:26;;;;;;;5.28;2.30;;;;;;;12.43;61.20;99615.50;5000468;28;124753;-70
2022/11/18 02:38:02;;;;;;;4.45;2.20;;;;;;;12.44;61.28;99611.91;4996142;28;123444;-70
2022/11/18 02:40:31;;;;;;;;;;;;;;;12.43;61.23;99610.19;4983644;28;115222;-70
2022/11/18 02:43:06;;;;;;;7.25;2.28;;;;;;;12.46;61.22;99615.28;4995501;28;113784;-70
2022/11/18 02:45:36;;;;;;;5.97;2.03;;;;;;;12.49;61.48;99615.09;4998753;28;124227;-70
2022/11/18 02:48:08;;;;;;;3.70;1.92;;;;;;;12.49;61.50;99615.09;4994501;28;124001;-70
2022/11/18 02:50:37;;;;;;;3.42;2.10;;;;;;;12.51;61.56;99615.81;4975549;28;113099;-70
2022/11/18 02:53:08;;;;;;;5.88;2.10;;;;;;;12.53;61.60;99616.56;4975149;28;113911;-70
2022/11/18 02:55:38;;;;;;;3.55;1.90;;;;;;;12.56;61.69;99615.47;5002897;28;124268;-70
2022/11/18 02:58:06;;;;;;;5.38;1.92;;;;;;;12.58;61.60;99619.72;5005494;28;125151;-70
2022/11/18 03:00:34;;;;;;;8.27;2.13;;;;;;;12.60;61.68;99617.81;5005089;28;114412;-70
2022/11/18 03:03:27;;;;;;;4.78;2.03;;;;;;;12.61;61.71;99616.00;5010958;28;114431;-70
2022/11/18 03:06:25;;;;;;;5.57;2.25;;;;;;;12.62;61.69;99621.19;5007001;28;123709;-70
2022/11/18 03:09:06;;;;;;;5.32;2.25;;;;;;;12.63;61.56;99628.19;4975705;28;123919;-69
2022/11/18 03:11:48;;;;;;;3.65;2.00;;;;;;;12.64;61.78;99624.59;5001890;28;114425;-70
2022/11/18 03:14:27;;;;;;;9.10;2.92;;;;;;;12.66;61.82;99638.59;4999655;28;114759;-70
2022/11/18 03:17:02;;;;;;;6.47;2.10;;;;;;;12.68;61.73;99629.66;4993163;28;123807;-70
2022/11/18 03:19:54;;;;;;;7.37;2.33;;;;;;;12.68;61.98;99643.81;5003624;28;124061;-70
2022/11/18 03:22:33;;;;;;;6.10;2.35;;;;;;;12.69;61.96;99634.84;4998899;28;115036;-70
2022/11/18 03:25:06;;;;;;;4.28;2.20;;;;;;;12.72;61.87;99641.78;5014372;28;115475;-70
2022/11/18 03:27:38;;;;;;;3.83;2.00;;;;;;;12.72;61.77;99647.09;4988885;28;123063;-70
2022/11/18 03:30:10;;;;;;;4.70;2.10;;;;;;;12.74;61.93;99645.16;4985350;28;124620;-70
2022/11/18 03:32:42;;;;;;;5.78;2.10;;;;;;;12.75;61.91;99652.16;4987211;28;113856;-70
2022/11/18 03:35:14;;;;;;;7.88;2.00;;;;;;;12.77;61.96;99658.19;5005857;28;114417;-70
2022/11/18 03:37:43;;;;;;;2.92;1.90;;;;;;;12.79;61.75;99658.94;5002132;28;124122;-70
2022/11/18 03:40:16;;;;;;;8.00;1.90;;;;;;;12.80;62.00;99655.34;5006619;28;123780;-70
2022/11/18 03:42:48;;;;;;;3.78;1.85;;;;;;;12.81;62.21;99671.16;4988468;28;113011;-70
2022/11/18 03:45:25;;;;;;;7.95;2.38;;;;;;;12.83;61.96;99676.38;5011503;28;114997;-70
2022/11/18 03:48:10;;;;;;;6.75;1.95;;;;;;;12.82;61.86;99675.50;4985157;28;122897;-70
2022/11/18 03:50:59;;;;;;;6.63;2.13;;;;;;;12.83;61.90;99682.53;4992971;28;123376;-70
2022/11/18 03:53:30;;;;;;;5.15;2.10;;;;;;;12.84;61.73;99683.38;4990291;28;113862;-70
2022/11/18 03:56:08;;;;;;;3.67;2.10;;;;;;;12.86;61.91;99686.75;4985546;28;113689;-70
2022/11/18 03:59:15;;;;;;;6.30;2.33;;;;;;;12.87;61.86;99685.81;4987077;28;123775;-70
2022/11/18 04:02:00;;;;;;;5.63;2.08;;;;;;;12.88;61.86;99687.50;5002644;28;121983;-69
2022/11/18 04:04:28;;;;;;;6.10;2.03;;;;;;;12.89;61.75;99691.03;4994528;28;113608;-70
2022/11/18 04:07:36;;;;;;;6.13;2.05;;;;;;;12.89;61.76;99697.19;5004431;28;114177;-70
2022/11/18 04:10:10;;;;;;;6.32;1.95;;;;;;;12.89;61.76;99697.19;4995592;28;123905;-70
2022/11/18 04:12:44;;;;;;;5.28;1.90;;;;;;;12.89;61.77;99702.50;5002789;28;123065;-70
2022/11/18 04:15:11;;;;;;;5.57;2.00;;;;;;;12.92;61.83;99696.09;5005988;28;115075;-70
2022/11/18 04:17:41;;;;;;;5.80;2.00;;;;;;;12.91;61.71;99697.91;5009551;28;114478;-70
2022/11/18 04:20:17;;;;;;;3.78;2.05;;;;;;;12.93;61.89;99703.97;5000629;28;124713;-70
2022/11/18 04:22:44;;;;;;;;;;;;;;;12.93;61.74;99709.28;4988593;28;123119;-70
2022/11/18 04:25:12;;;;;;;6.13;1.70;;;;;;;12.94;61.61;99705.66;4988014;28;114234;-70
2022/11/18 04:27:39;;;;;;;4.53;1.80;;;;;;;12.94;61.74;99713.63;4987065;28;112731;-70
2022/11/18 04:30:06;;;;;;;4.55;1.90;;;;;;;12.94;61.76;99716.28;5004265;28;123801;-70
2022/11/18 04:32:33;;;;;;;6.13;1.60;;;;;;;12.94;61.67;99720.75;5009018;28;124330;-69
2022/11/18 04:35:01;;;;;;;2.85;1.85;;;;;;;12.94;61.71;99718.97;5005437;28;114475;-71
2022/11/18 04:37:28;;;;;;;5.00;1.77;;;;;;;12.95;61.73;99717.13;5006834;28;113112;-70
2022/11/18 04:39:55;;;;;;;5.18;1.80;;;;;;;12.95;61.81;99733.09;5004328;28;124145;-70
2022/11/18 04:42:22;;;;;;;5.85;1.80;;;;;;;12.95;61.96;99733.94;5003729;28;123766;-70
2022/11/18 04:44:49;;;;;;;4.38;2.20;;;;;;;12.96;61.79;99730.31;5005646;28;114008;-70
2022/11/18 04:47:16;;;;;;;6.30;1.77;;;;;;;12.96;61.67;99740.09;4992321;28;114420;-70
2022/11/18 04:49:43;;;;;;;3.15;1.70;;;;;;;12.95;61.79;99747.22;4977158;28;122957;-70
2022/11/18 04:52:10;;;;;;;5.22;1.80;;;;;;;12.96;61.86;99754.25;4986985;28;122696;-70
2022/11/18 04:54:37;;;;;;;4.32;1.67;;;;;;;12.95;61.90;99749.88;5007137;28;114330;-70
2022/11/18 04:57:04;;;;;;;5.93;1.90;;;;;;;12.96;61.85;99756.03;4972035;28;112221;-70
2022/11/18 04:59:31;;;;;;;4.40;1.70;;;;;;;12.96;61.88;99756.91;4991299;28;124441;-70
2022/11/18 05:01:59;;;;;;;3.05;1.70;;;;;;;12.95;61.78;99768.47;5003519;28;123745;-70
2022/11/18 05:04:30;;;;;;;3.25;1.73;;;;;;;12.95;61.80;99768.47;5007281;28;114968;-70
2022/11/18 05:06:58;;;;;;;4.03;1.83;;;;;;;12.94;61.94;99769.44;4980550;28;114373;-69
2022/11/18 05:09:26;;;;;;;4.57;1.85;;;;;;;12.96;61.92;99777.28;5005621;28;124854;-70
2022/11/18 05:14:45;;;;;;;2.75;1.65;;;;;;;12.94;61.90;99772.13;5002509;28;114215;-70
2022/11/18 05:17:17;;;;;;;4.93;1.90;;;;;;;12.94;61.84;99774.78;4978238;28;114763;-70
2022/11/18 05:19:44;;;;;;;5.57;1.77;;;;;;;12.94;61.83;99774.78;5006054;28;123914;-70
2022/11/18 05:22:11;;;;;;;6.57;1.80;;;;;;;12.94;61.79;99784.53;4982461;28;124073;-70
2022/11/18 05:24:38;;;;;;;5.18;1.80;;;;;;;12.92;61.89;99782.00;4985029;28;113229;-70
2022/11/18 05:27:05;;;;;;;7.40;2.03;;;;;;;12.93;61.84;99778.38;5009110;28;114670;-70
2022/11/18 05:29:32;;;;;;;2.63;1.67;;;;;;;12.92;61.95;99784.66;5006381;28;125242;-70
2022/11/18 05:31:59;;;;;;;4.50;1.98;;;;;;;12.92;62.11;99792.63;4981942;28;122812;-70
2022/11/18 05:34:26;;;;;;;4.50;1.70;;;;;;;12.92;61.97;99792.63;5000808;28;114291;-70
2022/11/18 05:36:53;;;;;;;4.93;1.90;;;;;;;12.91;62.02;99798.91;4997258;28;113733;-70
2022/11/18 05:39:20;;;;;;;5.13;1.90;;;;;;;12.90;61.76;99794.53;4997121;28;123482;-70
2022/11/18 05:44:33;;;;;;;5.72;1.90;;;;;;;12.88;62.09;99796.44;4988872;28;114689;-70
2022/11/18 05:47:00;;;;;;;3.85;1.80;;;;;;;12.88;61.85;99801.75;4981767;28;112108;-72
2022/11/18 05:49:27;;;;;;;6.40;1.92;;;;;;;12.87;61.80;99805.41;5004024;28;125537;-70
2022/11/18 05:51:54;;;;;;;4.07;1.67;;;;;;;12.86;61.84;99803.69;5003757;28;123943;-70
2022/11/18 05:54:21;;;;;;;4.32;2.08;;;;;;;12.85;61.88;99812.63;5003684;28;115473;-70
2022/11/18 05:56:49;;;;;;;8.05;2.38;;;;;;;12.84;61.81;99816.22;5002361;28;114716;-72
2022/11/18 05:59:16;;;;;;;4.97;1.80;;;;;;;12.84;61.70;99818.88;5004957;28;123930;-70
2022/11/18 06:01:49;;;;;;;5.20;1.63;;;;;;;12.81;61.79;99817.31;5003239;28;123687;-70
2022/11/18 06:04:19;;;;;;;5.25;1.75;;;;;;;12.79;61.63;99821.88;5001424;28;114211;-70
2022/11/18 06:06:50;;;;;;;5.72;1.83;;;;;;;12.77;61.53;99825.59;5001589;28;114048;-70
2022/11/18 06:09:22;;;;;;;4.55;1.98;;;;;;;12.73;61.46;99829.44;5003856;28;124678;-72
2022/11/18 06:11:53;;;;;;;4.13;1.90;;;;;;;12.69;61.52;99833.25;5002017;28;124011;-71
2022/11/18 06:14:25;;;;;;;5.30;1.88;;;;;;;12.64;61.49;99837.09;4982731;28;114332;-72
2022/11/18 06:16:57;;;;;;;4.78;1.70;;;;;;;12.60;61.38;99843.59;5003382;28;113689;-71
2022/11/18 06:19:25;;;;;;;5.22;1.70;;;;;;;12.57;61.51;99846.44;4980962;28;123489;-71
2022/11/18 06:21:53;;;;;;;3.50;1.98;;;;;;;12.52;61.33;99842.41;4987554;28;124160;-72
2022/11/18 06:24:20;;;;;;;2.97;1.65;;;;;;;12.47;61.40;99850.69;4998909;28;114406;-71
2022/11/18 06:26:47;;;;;;;3.92;1.65;;;;;;;12.42;61.46;99858.13;5006222;28;113817;-71
2022/11/18 06:29:17;;;;;;;5.60;2.17;;;;;;;12.36;61.36;99858.56;4988008;28;123086;-71
2022/11/18 06:31:50;;;;;;;4.45;2.00;;;;;;;12.32;61.47;99857.91;5005390;28;123973;-72
2022/11/18 06:34:17;;;;;;;4.93;2.00;;;;;;;12.27;61.40;99866.16;4991884;28;114289;-71
2022/11/18 06:36:44;;;;;;;5.63;2.00;;;;;;;12.24;61.53;99865.53;4982827;28;112391;-72
2022/11/18 06:39:11;;;;;;;5.68;2.00;;;;;;;12.20;61.45;99864.88;5015363;28;124582;-72
2022/11/18 06:41:38;;;;;;;5.28;2.08;;;;;;;12.17;61.43;99870.41;4995849;28;124505;-72
2022/11/18 06:44:05;;;;;;;3.00;1.77;;;;;;;12.14;61.48;99886.53;5002886;28;113300;-70
2022/11/18 06:49:18;;;;;;;3.75;1.77;;;;;;;12.06;61.63;99880.91;5006936;28;123674;-71
2022/11/18 06:51:45;;;;;;;6.15;1.92;;;;;;;12.03;61.68;99886.41;4990722;28;124122;-71
2022/11/18 06:54:13;;;;;;;5.05;1.92;;;;;;;12.01;61.78;99890.97;5007072;28;114592;-71
2022/11/18 06:56:40;;;;;;;3.92;1.92;;;;;;;11.99;61.94;99892.88;4991443;28;113822;-72
2022/11/18 06:59:07;;;;;;;4.13;1.80;;;;;;;11.98;61.77;99899.13;5000345;28;124503;-71
2022/11/18 07:01:36;;;;;;;6.05;2.22;;;;;;;11.95;61.74;99907.31;5000989;28;123836;-72
2022/11/18 07:04:04;;;;;;;4.20;2.30;;;;;;;11.92;61.75;99907.50;4980462;28;114491;-71
2022/11/18 07:06:33;;;;;;;5.55;2.13;;;;;;;11.90;61.85;99920.00;5012509;28;114403;-72
2022/11/18 07:09:02;;;;;;;5.78;2.28;;;;;;;11.87;62.09;99915.72;5005722;28;124310;-71
2022/11/18 07:11:29;;;;;;;6.88;2.40;;;;;;;11.85;61.79;99918.47;4986011;28;124261;-72
2022/11/18 07:13:56;;;;;;;4.00;2.03;;;;;;;11.83;61.77;99924.84;5009898;28;114716;-71
2022/11/18 07:16:25;;;;;;;6.40;2.28;;;;;;;11.81;61.98;99922.28;5003305;28;113814;-71
2022/11/18 07:18:54;;;;;;;5.93;2.42;;;;;;;11.78;62.03;99927.78;5001603;28;123553;-71
2022/11/18 07:21:24;;;;;;;8.73;2.30;;;;;;;11.76;61.87;99924.38;5000688;28;124539;-71
2022/11/18 07:23:52;;;;;;;3.97;2.00;;;;;;;11.75;61.96;99930.63;4985876;28;114203;-72
2022/11/18 07:26:19;;;;;;;5.57;2.30;;;;;;;11.74;62.08;99931.59;5007716;28;113914;-71
2022/11/18 07:28:48;;;;;;;5.43;2.17;;;;;;;11.74;62.09;99936.06;5004283;28;124045;-72
2022/11/18 07:31:19;;;;;;;6.28;2.20;;;;;;;11.72;62.19;99946.75;5003641;28;123875;-72
2022/11/18 07:33:46;;;;;;;5.75;2.00;;;;;;;11.73;61.98;99951.09;5003456;28;113328;-72
2022/11/18 07:36:19;;;;;;;6.40;1.90;;;;;;;11.71;62.16;99953.00;5008637;28;114402;-72
2022/11/18 07:38:46;;;;;;;7.32;2.20;;;;;;;11.72;62.26;99953.88;4986248;28;124010;-72
2022/11/18 07:41:25;;;;;;;3.97;1.73;;;;;;;11.72;62.21;99957.38;4987542;28;125059;-72
2022/11/18 07:43:57;;;;;;;5.93;2.25;;;;;;;11.70;61.96;99969.88;5008699;28;114133;-72
2022/11/18 07:46:33;;;;;;;5.80;2.33;;;;;;;11.70;62.14;99972.53;5008037;28;114219;-72
2022/11/18 07:49:02;;;;;;;5.53;2.00;;;;;;;11.69;62.12;99971.66;4983306;28;123096;-71
2022/11/18 07:51:33;;;;;;;5.38;2.38;;;;;;;11.70;62.40;99969.88;5009655;28;124158;-72
2022/11/18 07:54:04;;;;;;;5.10;1.80;;;;;;;11.69;62.30;99976.97;5001913;28;113791;-72
2022/11/18 07:56:31;;;;;;;5.72;2.10;;;;;;;11.72;62.18;99981.25;5005733;28;113037;-72
2022/11/18 07:58:58;;;;;;;7.45;2.33;;;;;;;11.73;62.50;99988.22;5003788;28;123903;-72
2022/11/18 08:01:29;;;;;;;6.20;2.55;;;;;;;11.75;62.54;99985.50;4984743;28;122873;-72
2022/11/18 08:04:03;;;;;;;5.60;1.75;;;;;;;11.76;62.39;99987.22;4998726;28;114159;-72
2022/11/18 08:06:32;;;;;;;4.90;2.28;;;;;;;11.78;62.37;99991.47;5003168;28;113944;-72
2022/11/18 08:09:00;;;;;;;5.68;2.08;;;;;;;11.80;62.65;99994.84;4988424;28;122905;-72
2022/11/18 08:11:27;;;;;;;5.05;1.98;;;;;;;11.83;62.60;99994.69;4996009;28;124236;-72
2022/11/18 08:13:54;;;;;;;2.80;1.85;;;;;;;11.83;62.51;100005.28;4983677;28;113570;-71
2022/11/18 08:16:24;;;;;;;5.32;2.22;;;;;;;11.85;62.44;100008.69;5006989;28;114078;-72
2022/11/18 08:18:52;;;;;;;5.05;2.40;;;;;;;11.87;62.49;100011.25;4996476;28;124768;-72
2022/11/18 08:21:20;;;;;;;15.98;2.30;;;;;;;11.88;62.43;100003.19;5007761;28;123473;-72
2022/11/18 08:23:52;;;;;;;5.03;2.25;;;;;;;11.88;62.21;100015.59;4990626;28;115521;-72
2022/11/18 08:26:20;;;;;;;6.07;2.15;;;;;;;11.90;62.34;100012.88;4982141;28;115200;-72
2022/11/18 08:28:47;;;;;;;4.47;2.40;;;;;;;11.91;62.36;100019.91;4976898;28;122879;-72
2022/11/18 08:31:21;;;;;;;5.78;2.33;;;;;;;11.91;62.40;100019.91;4992069;28;124191;-72
2022/11/18 08:33:48;;;;;;;7.35;2.50;;;;;;;11.93;62.32;100025.97;4990053;28;114116;-72
2022/11/18 08:36:19;;;;;;;6.25;2.30;;;;;;;11.94;62.26;100022.34;4984445;28;113112;-72
2022/11/18 08:38:47;;;;;;;4.43;1.95;;;;;;;11.96;62.28;100031.06;4986421;28;124227;-72
2022/11/18 08:41:28;;;;;;;4.68;2.28;;;;;;;11.98;62.17;100023.84;4973519;28;123093;-72
2022/11/18 08:43:55;;;;;;;4.90;2.35;;;;;;;12.00;62.39;100027.28;4990028;28;114564;-71
2022/11/18 08:46:22;;;;;;;5.88;2.20;;;;;;;12.02;62.20;100025.38;4974087;28;112727;-72
2022/11/18 08:48:49;;;;;;;6.13;2.65;;;;;;;12.03;62.48;100027.06;4991101;28;123821;-72
2022/11/18 08:51:17;;;;;;;5.82;2.42;;;;;;;12.05;62.24;100025.16;4975579;28;96959;-72
2022/11/18 08:53:44;;;;;;;3.00;2.08;;;;;;;12.07;62.29;100026.78;4991926;28;114610;-72
2022/11/18 08:56:14;;;;;;;4.63;2.70;;;;;;;12.10;62.35;100033.69;4989846;28;113818;-72
2022/11/18 08:58:42;;;;;;;5.18;2.63;;;;;;;12.14;62.51;100029.88;4991102;28;124428;-72
2022/11/18 09:01:09;;;;;;;5.38;2.50;;;;;;;12.17;62.52;100035.00;4990704;28;123879;-72
2022/11/18 09:03:37;;;;;;;7.47;2.88;;;;;;;12.21;62.27;100044.47;4991401;28;114237;-72
2022/11/18 09:06:12;;;;;;;8.70;2.58;;;;;;;12.24;62.42;100046.94;5006161;28;114189;-72
2022/11/18 09:08:40;;;;;;;6.00;2.50;;;;;;;12.28;62.21;100052.88;4990212;28;124823;-72
2022/11/18 09:11:10;;;;;;;7.70;2.95;;;;;;;12.31;62.52;100057.16;4974622;28;122196;-72
2022/11/18 09:13:37;;;;;;;5.30;2.40;;;;;;;12.32;62.37;100053.53;5000416;28;115137;-72
2022/11/18 09:16:26;;;;;;;7.22;2.58;;;;;;;12.34;62.35;100052.50;5012179;28;114988;-72
2022/11/18 09:18:55;;;;;;;5.88;2.45;;;;;;;12.36;62.36;100060.38;5005215;28;123928;-72
2022/11/18 09:21:23;;;;;;;6.93;2.53;;;;;;;12.40;62.06;100056.56;4974341;28;123660;-72
2022/11/18 09:23:50;;;;;;;6.07;2.85;;;;;;;12.43;62.15;100069.59;4986814;28;113235;-72
2022/11/18 09:26:20;;;;;;;12.02;3.15;;;;;;;12.45;62.24;100065.91;4999280;28;114388;-72
2022/11/18 09:28:47;;;;;;;5.90;2.55;;;;;;;12.45;62.20;100065.03;4993496;28;125044;-72
2022/11/18 09:31:16;;;;;;;5.25;2.53;;;;;;;12.47;61.90;100068.47;4973485;28;124031;-71
2022/11/18 09:33:44;;;;;;;5.22;2.53;;;;;;;12.49;62.07;100071.88;4986590;28;114790;-72
2022/11/18 09:36:14;;;;;;;5.60;2.50;;;;;;;12.51;62.10;100075.28;4972701;28;113116;-72
2022/11/18 09:38:41;;;;;;;10.13;2.60;;;;;;;12.52;61.97;100076.97;4992092;28;124972;-72
2022/11/18 09:41:08;;;;;;;7.32;2.72;;;;;;;12.56;62.10;100086.44;4984848;28;123741;-71
2022/11/18 09:43:48;;;;;;;4.82;2.40;;;;;;;12.60;62.08;100090.63;4988132;28;113851;-72
2022/11/18 09:46:43;;;;;;;6.18;2.53;;;;;;;12.64;62.07;100086.81;4994279;28;113232;-72
2022/11/18 09:49:15;;;;;;;4.97;2.50;;;;;;;12.70;62.04;100084.72;4992752;28;123300;-72
2022/11/18 09:51:48;;;;;;;4.35;2.40;;;;;;;12.75;62.12;100093.19;5001898;28;121963;-72
2022/11/18 09:54:21;;;;;;;5.90;2.50;;;;;;;12.80;62.02;100091.09;5008711;28;113385;-72
2022/11/18 09:56:50;;;;;;;8.85;2.75;;;;;;;12.86;62.16;100096.00;4986798;28;112925;-72
2022/11/18 09:59:21;;;;;;;5.75;2.55;;;;;;;12.92;61.98;100095.63;5010785;28;124559;-72
2022/11/18 10:01:50;;;;;;;9.63;3.00;;;;;;;12.98;61.94;100100.50;5004307;28;124155;-72
2022/11/18 10:04:19;;;;;;;8.23;2.60;;;;;;;13.04;62.02;100105.41;5019395;28;115779;-72
2022/11/18 10:06:48;;;;;;;10.15;2.70;;;;;;;13.12;62.14;100101.38;5005632;28;115095;-72
2022/11/18 10:09:36;;;;;;;6.32;2.70;;;;;;;13.17;62.03;100112.56;4994780;28;123786;-72
2022/11/18 10:12:22;;;;;;;12.00;3.60;;;;;;;13.23;62.06;100109.50;4975746;28;124008;-72
2022/11/18 10:15:18;;;;;;;10.63;3.08;;;;;;;13.27;61.86;100113.63;5007324;28;115016;-71
2022/11/18 10:18:16;;;;;;;6.53;2.85;;;;;;;13.33;61.81;100121.22;5003139;28;114516;-70
2022/11/18 10:21:22;;;;;;;14.73;3.67;;;;;;;13.39;61.84;100120.81;4993638;28;124482;-70
2022/11/18 10:23:56;;;;;;;6.32;2.75;;;;;;;13.48;61.86;100118.47;5002260;28;123697;-70
2022/11/18 10:26:35;;;;;;;5.82;2.60;;;;;;;13.53;61.82;100127.84;5007189;28;114048;-72
2022/11/18 10:29:03;;;;;;;4.82;2.50;;;;;;;13.60;61.69;100128.28;5000709;28;113642;-70
2022/11/18 10:31:30;;;;;;;6.25;3.00;;;;;;;13.66;61.68;100138.50;5006319;28;124098;-70
2022/11/18 10:33:59;;;;;;;7.88;2.88;;;;;;;13.74;61.72;100135.31;4992371;28;124675;-70
2022/11/18 10:36:32;;;;;;;9.15;2.85;;;;;;;13.82;61.62;100138.28;4999516;28;114242;-70
2022/11/18 10:39:13;;;;;;;6.07;2.55;;;;;;;13.90;61.50;100140.38;5005051;28;113718;-70
2022/11/18 10:41:45;;;;;;;8.65;3.10;;;;;;;14.00;61.46;100149.44;5004348;28;124828;-70
2022/11/18 10:44:27;;;;;;;6.40;2.85;;;;;;;14.09;61.38;100151.47;4991839;28;124928;-70
2022/11/18 10:46:55;;;;;;;5.57;2.60;;;;;;;14.18;61.57;100153.47;4996432;28;113507;-70
2022/11/18 10:49:22;;;;;;;7.00;2.67;;;;;;;14.27;61.28;100159.09;4998246;28;114852;-71
2022/11/18 10:52:10;;;;;;;8.07;2.78;;;;;;;14.32;61.11;100151.63;4975654;28;123741;-70
2022/11/18 10:54:37;;;;;;;6.60;2.40;;;;;;;14.40;61.18;100159.91;4978943;28;122637;-70
2022/11/18 10:57:24;;;;;;;4.82;2.20;;;;;;;14.45;60.85;100155.13;4997075;28;115981;-70
2022/11/18 10:59:54;;;;;;;5.70;2.28;;;;;;;14.50;60.70;100154.75;5001395;28;114769;-70
2022/11/18 11:02:33;;;;;;;10.15;2.30;;;;;;;14.54;60.63;100154.44;4985642;28;122522;-70
2022/11/18 11:05:14;;;;;;;7.13;2.00;;;;;;;14.62;60.60;100158.38;4978763;28;124126;-70
2022/11/18 11:07:41;;;;;;;7.72;2.17;;;;;;;14.72;60.68;100148.75;5013194;28;115236;-70
2022/11/18 11:10:12;;;;;;;5.45;2.20;;;;;;;14.79;60.48;100155.34;4985631;28;113891;-70
2022/11/18 11:12:46;;;;;;;9.68;2.17;;;;;;;14.86;60.13;100161.94;5006893;28;124239;-72
2022/11/18 11:15:21;;;;;;;4.75;1.98;;;;;;;14.94;59.86;100169.38;5004535;28;123653;-70
2022/11/18 11:20:43;;;;;;;5.82;2.00;;;;;;;15.03;59.68;100167.81;5000202;28;112887;-70
2022/11/18 11:23:12;;;;;;;4.95;1.88;;;;;;;15.07;59.57;100174.59;4973974;28;122815;-70
2022/11/18 11:25:58;;;;;;;7.25;2.13;;;;;;;15.11;59.26;100176.94;5004414;28;124101;-70
2022/11/18 11:29:30;;;;;;;4.18;1.58;;;;;;;15.15;59.46;100177.56;4997704;28;113642;-71
2022/11/18 11:31:57;;;;;;;4.43;2.08;;;;;;;15.19;59.27;100179.03;5006838;28;113970;-73
2022/11/18 11:34:46;;;;;;;5.38;1.98;;;;;;;15.21;59.16;100177.09;5008021;28;123648;-70
2022/11/18 11:37:51;;;;;;;6.38;2.15;;;;;;;15.24;58.93;100179.56;5006966;28;123232;-70
2022/11/18 11:40:28;;;;;;;6.47;2.30;;;;;;;15.28;58.91;100183.69;4999871;28;113204;-70
2022/11/18 11:43:57;;;;;;;9.00;2.80;;;;;;;15.29;58.93;100180.03;4989208;28;114862;-70
2022/11/18 11:49:51;;;;;;;5.55;2.40;;;;;;;15.34;58.79;100183.22;5000309;28;124362;-70
2022/11/18 11:52:57;;;;;;;5.63;1.90;;;;;;;15.34;58.62;100185.88;5000474;28;115245;-70
2022/11/18 11:55:34;;;;;;;5.13;2.05;;;;;;;15.35;58.61;100187.59;5004854;28;114421;-70
2022/11/18 11:58:16;;;;;;;7.82;2.17;;;;;;;15.35;58.53;100184.94;4983228;28;124081;-70
2022/11/18 12:00:54;;;;;;;6.22;1.83;;;;;;;15.36;58.31;100181.28;5007392;28;123044;-70
2022/11/18 12:03:39;;;;;;;10.75;2.10;;;;;;;15.40;58.29;100183.72;5003791;28;113275;-70
2022/11/18 12:06:09;;;;;;;6.43;1.90;;;;;;;15.42;58.22;100184.47;4998579;28;113077;-70